sensor_id;sensor_type;location;lat;lon;timestamp;pressure;altitude;pressure_sealevel;temperature;humidity
8101;BME280;4093;53.470;9.832;2023-04-06T00:02:28;101946.09;;;3.94;74.38
8101;BME280;4093;53.470;9.832;2023-04-06T00:04:56;101936.63;;;3.91;74.26
8101;BME280;4093;53.470;9.832;2023-04-06T00:07:24;101942.44;;;4.14;74.53
8101;BME280;4093;53.470;9.832;2023-04-06T00:09:52;101939.59;;;4.35;72.41
8101;BME280;4093;53.470;9.832;2023-04-06T00:12:20;101932.81;;;4.69;70.42
8101;BME280;4093;53.470;9.832;2023-04-06T00:14:48;101927.66;;;4.68;70.91
8101;BME280;4093;53.470;9.832;2023-04-06T00:17:15;101928.16;;;4.87;71.57
8101;BME280;4093;53.470;9.832;2023-04-06T00:19:45;101913.94;;;4.66;70.59
8101;BME280;4093;53.470;9.832;2023-04-06T00:22:12;101911.34;;;4.64;70.06
8101;BME280;4093;53.470;9.832;2023-04-06T00:24:40;101910.69;;;4.39;70.35
8101;BME280;4093;53.470;9.832;2023-04-06T00:27:08;101911.84;;;4.19;72.57
8101;BME280;4093;53.470;9.832;2023-04-06T00:29:36;101914.91;;;4.37;72.06
8101;BME280;4093;53.470;9.832;2023-04-06T00:32:05;101937.06;;;4.69;70.54
8101;BME280;4093;53.470;9.832;2023-04-06T00:34:33;101909.78;;;4.37;70.50
8101;BME280;4093;53.470;9.832;2023-04-06T00:37:02;101898.06;;;4.14;70.67
8101;BME280;4093;53.470;9.832;2023-04-06T00:39:30;101905.84;;;4.18;71.47
8101;BME280;4093;53.470;9.832;2023-04-06T00:41:58;101920.28;;;4.47;70.39
8101;BME280;4093;53.470;9.832;2023-04-06T00:44:26;101909.59;;;4.63;69.17
8101;BME280;4093;53.470;9.832;2023-04-06T00:46:54;101908.19;;;4.74;69.23
8101;BME280;4093;53.470;9.832;2023-04-06T00:49:22;101910.06;;;4.81;68.99
8101;BME280;4093;53.470;9.832;2023-04-06T00:51:50;101900.59;;;4.77;68.85
8101;BME280;4093;53.470;9.832;2023-04-06T00:54:19;101897.03;;;4.72;67.58
8101;BME280;4093;53.470;9.832;2023-04-06T00:56:47;101883.75;;;4.54;67.75
8101;BME280;4093;53.470;9.832;2023-04-06T00:59:15;101888.88;;;4.54;68.31
8101;BME280;4093;53.470;9.832;2023-04-06T01:01:42;101890.72;;;4.59;68.66
8101;BME280;4093;53.470;9.832;2023-04-06T01:04:11;101880.91;;;4.43;68.73
8101;BME280;4093;53.470;9.832;2023-04-06T01:06:39;101882.53;;;4.39;67.43
8101;BME280;4093;53.470;9.832;2023-04-06T01:09:07;101875.03;;;4.46;68.63
8101;BME280;4093;53.470;9.832;2023-04-06T01:11:36;101868.91;;;4.40;68.53
8101;BME280;4093;53.470;9.832;2023-04-06T01:14:04;101859.88;;;4.22;68.94
8101;BME280;4093;53.470;9.832;2023-04-06T01:16:32;101868.47;;;4.24;69.75
8101;BME280;4093;53.470;9.832;2023-04-06T01:19:00;101867.59;;;4.23;71.02
8101;BME280;4093;53.470;9.832;2023-04-06T01:21:28;101876.53;;;4.07;73.01
8101;BME280;4093;53.470;9.832;2023-04-06T01:23:57;101877.19;;;4.32;71.34
8101;BME280;4093;53.470;9.832;2023-04-06T01:26:25;101872.84;;;4.29;71.07
8101;BME280;4093;53.470;9.832;2023-04-06T01:28:55;101860.72;;;4.22;69.99
8101;BME280;4093;53.470;9.832;2023-04-06T01:31:23;101861.44;;;4.16;68.32
8101;BME280;4093;53.470;9.832;2023-04-06T01:33:51;101867.44;;;4.17;70.29
8101;BME280;4093;53.470;9.832;2023-04-06T01:36:20;101875.31;;;4.25;70.41
8101;BME280;4093;53.470;9.832;2023-04-06T01:38:48;101863.28;;;4.21;71.40
8101;BME280;4093;53.470;9.832;2023-04-06T01:41:17;101864.88;;;4.17;73.35
8101;BME280;4093;53.470;9.832;2023-04-06T01:43:45;101870.97;;;4.22;72.83
8101;BME280;4093;53.470;9.832;2023-04-06T01:46:13;101861.06;;;4.03;73.90
8101;BME280;4093;53.470;9.832;2023-04-06T01:48:41;101869.00;;;4.12;73.44
8101;BME280;4093;53.470;9.832;2023-04-06T01:51:09;101846.28;;;3.62;71.86
8101;BME280;4093;53.470;9.832;2023-04-06T01:53:37;101860.38;;;3.78;73.28
8101;BME280;4093;53.470;9.832;2023-04-06T01:56:05;101854.59;;;3.85;71.32
8101;BME280;4093;53.470;9.832;2023-04-06T01:58:35;101847.94;;;2.76;77.20
8101;BME280;4093;53.470;9.832;2023-04-06T02:01:02;101863.28;;;3.32;75.83
8101;BME280;4093;53.470;9.832;2023-04-06T02:03:30;101858.69;;;3.48;73.08
8101;BME280;4093;53.470;9.832;2023-04-06T02:05:58;101841.88;;;2.74;76.26
8101;BME280;4093;53.470;9.832;2023-04-06T02:08:26;101856.91;;;2.65;77.64
8101;BME280;4093;53.470;9.832;2023-04-06T02:10:53;101838.31;;;2.43;77.37
8101;BME280;4093;53.470;9.832;2023-04-06T02:13:21;101866.78;;;2.81;76.33
8101;BME280;4093;53.470;9.832;2023-04-06T02:15:50;101858.03;;;3.27;74.46
8101;BME280;4093;53.470;9.832;2023-04-06T02:18:18;101857.00;;;3.51;73.63
8101;BME280;4093;53.470;9.832;2023-04-06T02:20:46;101857.47;;;3.66;72.95
8101;BME280;4093;53.470;9.832;2023-04-06T02:23:14;101843.53;;;3.55;71.24
8101;BME280;4093;53.470;9.832;2023-04-06T02:25:42;101817.69;;;2.63;75.24
8101;BME280;4093;53.470;9.832;2023-04-06T02:28:09;101846.06;;;2.72;76.74
8101;BME280;4093;53.470;9.832;2023-04-06T02:30:37;101848.28;;;3.15;75.02
8101;BME280;4093;53.470;9.832;2023-04-06T02:33:06;101841.00;;;3.00;74.81
8101;BME280;4093;53.470;9.832;2023-04-06T02:35:34;101840.84;;;2.69;75.55
8101;BME280;4093;53.470;9.832;2023-04-06T02:38:02;101825.75;;;2.24;77.01
8101;BME280;4093;53.470;9.832;2023-04-06T02:40:30;101845.13;;;2.19;78.46
8101;BME280;4093;53.470;9.832;2023-04-06T02:42:57;101851.72;;;2.12;78.79
8101;BME280;4093;53.470;9.832;2023-04-06T02:45:25;101849.16;;;2.12;78.45
8101;BME280;4093;53.470;9.832;2023-04-06T02:47:53;101859.34;;;2.62;76.75
8101;BME280;4093;53.470;9.832;2023-04-06T02:50:23;101839.94;;;2.41;76.03
8101;BME280;4093;53.470;9.832;2023-04-06T02:52:52;101848.47;;;1.92;78.44
8101;BME280;4093;53.470;9.832;2023-04-06T02:55:19;101862.34;;;2.50;75.73
8101;BME280;4093;53.470;9.832;2023-04-06T02:57:48;101848.00;;;2.53;73.62
8101;BME280;4093;53.470;9.832;2023-04-06T03:00:16;101854.91;;;2.06;76.80
8101;BME280;4093;53.470;9.832;2023-04-06T03:02:44;101860.38;;;2.67;75.60
8101;BME280;4093;53.470;9.832;2023-04-06T03:05:12;101853.66;;;2.96;73.70
8101;BME280;4093;53.470;9.832;2023-04-06T03:07:41;101838.16;;;2.91;71.93
8101;BME280;4093;53.470;9.832;2023-04-06T03:10:09;101830.94;;;2.78;72.98
8101;BME280;4093;53.470;9.832;2023-04-06T03:12:37;101825.63;;;2.45;72.86
8101;BME280;4093;53.470;9.832;2023-04-06T03:15:05;101825.03;;;2.28;74.08
8101;BME280;4093;53.470;9.832;2023-04-06T03:17:33;101836.59;;;2.42;73.22
8101;BME280;4093;53.470;9.832;2023-04-06T03:20:01;101826.81;;;2.29;74.17
8101;BME280;4093;53.470;9.832;2023-04-06T03:22:29;101838.84;;;2.59;74.08
8101;BME280;4093;53.470;9.832;2023-04-06T03:24:58;101845.88;;;2.66;73.05
8101;BME280;4093;53.470;9.832;2023-04-06T03:27:29;101846.66;;;2.90;72.81
8101;BME280;4093;53.470;9.832;2023-04-06T03:29:57;101836.44;;;2.90;71.65
8101;BME280;4093;53.470;9.832;2023-04-06T03:32:24;101825.84;;;2.51;71.99
8101;BME280;4093;53.470;9.832;2023-04-06T03:34:52;101840.41;;;2.81;72.12
8101;BME280;4093;53.470;9.832;2023-04-06T03:37:20;101843.28;;;2.91;71.82
8101;BME280;4093;53.470;9.832;2023-04-06T03:39:48;101837.91;;;2.82;71.26
8101;BME280;4093;53.470;9.832;2023-04-06T03:42:17;101815.69;;;2.03;72.50
8101;BME280;4093;53.470;9.832;2023-04-06T03:44:45;101834.44;;;1.81;74.58
8101;BME280;4093;53.470;9.832;2023-04-06T03:47:12;101850.69;;;2.07;73.09
8101;BME280;4093;53.470;9.832;2023-04-06T03:49:40;101843.22;;;2.37;72.69
8101;BME280;4093;53.470;9.832;2023-04-06T03:52:08;101844.69;;;2.30;72.72
8101;BME280;4093;53.470;9.832;2023-04-06T03:54:36;101851.19;;;2.46;72.30
8101;BME280;4093;53.470;9.832;2023-04-06T03:57:04;101833.44;;;2.25;72.25
8101;BME280;4093;53.470;9.832;2023-04-06T03:59:33;101831.34;;;1.88;74.41
8101;BME280;4093;53.470;9.832;2023-04-06T04:02:01;101847.13;;;2.27;72.99
8101;BME280;4093;53.470;9.832;2023-04-06T04:04:29;101836.41;;;2.12;72.36
8101;BME280;4093;53.470;9.832;2023-04-06T04:06:57;101831.50;;;1.94;73.97
8101;BME280;4093;53.470;9.832;2023-04-06T04:09:25;101846.81;;;2.18;73.88
8101;BME280;4093;53.470;9.832;2023-04-06T04:11:55;101852.81;;;2.44;72.49
8101;BME280;4093;53.470;9.832;2023-04-06T04:14:23;101862.53;;;2.54;72.42
8101;BME280;4093;53.470;9.832;2023-04-06T04:16:53;101855.78;;;2.57;74.24
8101;BME280;4093;53.470;9.832;2023-04-06T04:19:21;101848.91;;;2.54;74.28
8101;BME280;4093;53.470;9.832;2023-04-06T04:21:48;101835.00;;;2.20;72.79
8101;BME280;4093;53.470;9.832;2023-04-06T04:24:16;101854.97;;;2.32;74.32
8101;BME280;4093;53.470;9.832;2023-04-06T04:26:44;101823.25;;;1.53;75.47
8101;BME280;4093;53.470;9.832;2023-04-06T04:29:12;101846.59;;;1.64;75.26
8101;BME280;4093;53.470;9.832;2023-04-06T04:31:39;101839.41;;;1.31;77.12
8101;BME280;4093;53.470;9.832;2023-04-06T04:34:09;101839.88;;;1.21;77.29
8101;BME280;4093;53.470;9.832;2023-04-06T04:36:36;101856.03;;;1.67;76.73
8101;BME280;4093;53.470;9.832;2023-04-06T04:39:04;101842.25;;;1.61;74.39
8101;BME280;4093;53.470;9.832;2023-04-06T04:41:34;101855.34;;;1.48;76.40
8101;BME280;4093;53.470;9.832;2023-04-06T04:44:01;101864.97;;;2.02;74.54
8101;BME280;4093;53.470;9.832;2023-04-06T04:46:29;101860.69;;;2.01;73.03
8101;BME280;4093;53.470;9.832;2023-04-06T04:48:57;101848.72;;;1.76;74.07
8101;BME280;4093;53.470;9.832;2023-04-06T04:51:26;101842.13;;;1.58;75.05
8101;BME280;4093;53.470;9.832;2023-04-06T04:53:54;101854.91;;;1.82;74.39
8101;BME280;4093;53.470;9.832;2023-04-06T04:56:21;101861.81;;;1.85;74.69
8101;BME280;4093;53.470;9.832;2023-04-06T04:58:49;101851.63;;;1.62;74.37
8101;BME280;4093;53.470;9.832;2023-04-06T05:01:17;101854.84;;;1.57;76.04
8101;BME280;4093;53.470;9.832;2023-04-06T05:03:45;101857.53;;;1.61;75.83
8101;BME280;4093;53.470;9.832;2023-04-06T05:06:13;101863.84;;;1.71;75.37
8101;BME280;4093;53.470;9.832;2023-04-06T05:08:42;101858.03;;;1.75;74.83
8101;BME280;4093;53.470;9.832;2023-04-06T05:11:10;101839.66;;;1.60;74.81
8101;BME280;4093;53.470;9.832;2023-04-06T05:13:38;101858.94;;;1.76;74.04
8101;BME280;4093;53.470;9.832;2023-04-06T05:16:06;101860.50;;;1.96;73.85
8101;BME280;4093;53.470;9.832;2023-04-06T05:18:34;101837.38;;;2.16;73.88
8101;BME280;4093;53.470;9.832;2023-04-06T05:21:02;101853.75;;;2.22;71.83
8101;BME280;4093;53.470;9.832;2023-04-06T05:23:30;101847.03;;;1.76;74.67
8101;BME280;4093;53.470;9.832;2023-04-06T05:25:59;101838.78;;;1.83;74.08
8101;BME280;4093;53.470;9.832;2023-04-06T05:28:27;101838.78;;;1.83;74.37
8101;BME280;4093;53.470;9.832;2023-04-06T05:30:55;101858.59;;;2.15;73.71
8101;BME280;4093;53.470;9.832;2023-04-06T05:33:23;101860.34;;;2.41;73.06
8101;BME280;4093;53.470;9.832;2023-04-06T05:35:51;101854.91;;;2.56;72.41
8101;BME280;4093;53.470;9.832;2023-04-06T05:38:19;101851.78;;;2.90;71.30
8101;BME280;4093;53.470;9.832;2023-04-06T05:40:47;101843.06;;;3.39;69.63
8101;BME280;4093;53.470;9.832;2023-04-06T05:43:16;101837.44;;;3.81;67.15
8101;BME280;4093;53.470;9.832;2023-04-06T05:45:47;101849.34;;;4.43;68.25
8101;BME280;4093;53.470;9.832;2023-04-06T05:48:14;101835.25;;;5.34;64.45
8101;BME280;4093;53.470;9.832;2023-04-06T05:50:42;101827.13;;;5.53;62.73
8101;BME280;4093;53.470;9.832;2023-04-06T05:53:10;101824.09;;;5.30;63.68
8101;BME280;4093;53.470;9.832;2023-04-06T05:55:38;101815.75;;;5.41;63.50
8101;BME280;4093;53.470;9.832;2023-04-06T05:58:06;101824.50;;;6.38;60.75
8101;BME280;4093;53.470;9.832;2023-04-06T06:00:35;101831.41;;;6.95;59.69
8101;BME280;4093;53.470;9.832;2023-04-06T06:03:03;101826.19;;;8.28;58.03
8101;BME280;4093;53.470;9.832;2023-04-06T06:05:32;101816.16;;;8.58;55.75
8101;BME280;4093;53.470;9.832;2023-04-06T06:08:00;101818.75;;;8.58;55.17
8101;BME280;4093;53.470;9.832;2023-04-06T06:10:28;101821.09;;;9.61;53.62
8101;BME280;4093;53.470;9.832;2023-04-06T06:12:56;101807.44;;;11.12;50.62
8101;BME280;4093;53.470;9.832;2023-04-06T06:15:24;101805.63;;;12.82;47.87
8101;BME280;4093;53.470;9.832;2023-04-06T06:17:53;101788.44;;;14.68;42.90
8101;BME280;4093;53.470;9.832;2023-04-06T06:20:21;101785.16;;;15.04;42.33
8101;BME280;4093;53.470;9.832;2023-04-06T06:22:49;101787.78;;;15.46;40.70
8101;BME280;4093;53.470;9.832;2023-04-06T06:25:17;101791.78;;;16.03;40.71
8101;BME280;4093;53.470;9.832;2023-04-06T06:27:45;101792.91;;;16.29;40.12
8101;BME280;4093;53.470;9.832;2023-04-06T06:30:13;101790.47;;;16.93;38.39
8101;BME280;4093;53.470;9.832;2023-04-06T06:32:41;101784.63;;;16.83;39.39
8101;BME280;4093;53.470;9.832;2023-04-06T06:35:10;101782.03;;;17.44;38.99
8101;BME280;4093;53.470;9.832;2023-04-06T06:37:38;101788.88;;;17.48;37.29
8101;BME280;4093;53.470;9.832;2023-04-06T06:40:08;101789.75;;;18.33;34.16
8101;BME280;4093;53.470;9.832;2023-04-06T06:42:36;101784.44;;;17.20;34.18
8101;BME280;4093;53.470;9.832;2023-04-06T06:45:06;101780.75;;;18.41;33.08
8101;BME280;4093;53.470;9.832;2023-04-06T06:47:34;101787.81;;;18.91;32.67
8101;BME280;4093;53.470;9.832;2023-04-06T06:50:02;101780.50;;;17.96;32.64
8101;BME280;4093;53.470;9.832;2023-04-06T06:52:32;101781.66;;;17.86;33.36
8101;BME280;4093;53.470;9.832;2023-04-06T06:55:00;101784.66;;;18.01;33.49
8101;BME280;4093;53.470;9.832;2023-04-06T06:57:27;101772.09;;;18.91;31.95
8101;BME280;4093;53.470;9.832;2023-04-06T06:59:55;101776.25;;;18.71;32.35
8101;BME280;4093;53.470;9.832;2023-04-06T07:02:23;101779.38;;;15.34;35.15
8101;BME280;4093;53.470;9.832;2023-04-06T07:04:51;101777.91;;;15.19;35.67
8101;BME280;4093;53.470;9.832;2023-04-06T07:07:19;101778.19;;;16.26;34.81
8101;BME280;4093;53.470;9.832;2023-04-06T07:09:48;101775.00;;;13.84;38.28
8101;BME280;4093;53.470;9.832;2023-04-06T07:12:16;101773.94;;;14.53;37.82
8101;BME280;4093;53.470;9.832;2023-04-06T07:14:44;101768.41;;;14.71;37.86
8101;BME280;4093;53.470;9.832;2023-04-06T07:17:12;101777.19;;;15.94;36.30
8101;BME280;4093;53.470;9.832;2023-04-06T07:19:40;101768.38;;;15.61;36.74
8101;BME280;4093;53.470;9.832;2023-04-06T07:22:08;101773.84;;;15.47;37.55
8101;BME280;4093;53.470;9.832;2023-04-06T07:24:36;101772.03;;;15.11;37.04
8101;BME280;4093;53.470;9.832;2023-04-06T07:27:05;101758.69;;;16.75;35.84
8101;BME280;4093;53.470;9.832;2023-04-06T07:29:33;101766.53;;;15.23;36.55
8101;BME280;4093;53.470;9.832;2023-04-06T07:32:01;101771.50;;;14.42;37.54
8101;BME280;4093;53.470;9.832;2023-04-06T07:34:29;101777.38;;;15.46;36.32
8101;BME280;4093;53.470;9.832;2023-04-06T07:36:57;101771.34;;;16.56;35.31
8101;BME280;4093;53.470;9.832;2023-04-06T07:39:28;101758.81;;;15.18;36.00
8101;BME280;4093;53.470;9.832;2023-04-06T07:41:55;101769.03;;;15.71;35.18
8101;BME280;4093;53.470;9.832;2023-04-06T07:44:25;101770.81;;;14.82;37.12
8101;BME280;4093;53.470;9.832;2023-04-06T07:46:52;101769.38;;;14.67;37.24
8101;BME280;4093;53.470;9.832;2023-04-06T07:49:20;101776.22;;;13.58;38.90
8101;BME280;4093;53.470;9.832;2023-04-06T07:51:49;101771.31;;;15.44;36.33
8101;BME280;4093;53.470;9.832;2023-04-06T07:54:17;101763.22;;;18.17;33.70
8101;BME280;4093;53.470;9.832;2023-04-06T07:56:45;101758.66;;;15.66;33.94
8101;BME280;4093;53.470;9.832;2023-04-06T07:59:12;101765.22;;;15.45;35.63
8101;BME280;4093;53.470;9.832;2023-04-06T08:01:41;101751.16;;;17.27;33.87
8101;BME280;4093;53.470;9.832;2023-04-06T08:04:09;101745.53;;;17.41;34.10
8101;BME280;4093;53.470;9.832;2023-04-06T08:06:38;101755.16;;;17.09;34.25
8101;BME280;4093;53.470;9.832;2023-04-06T08:09:07;101733.22;;;16.83;34.11
8101;BME280;4093;53.470;9.832;2023-04-06T08:11:35;101744.50;;;19.97;31.15
8101;BME280;4093;53.470;9.832;2023-04-06T08:14:03;101742.22;;;20.30;31.03
8101;BME280;4093;53.470;9.832;2023-04-06T08:16:30;101732.28;;;18.80;31.44
8101;BME280;4093;53.470;9.832;2023-04-06T08:18:59;101750.75;;;18.25;33.49
8101;BME280;4093;53.470;9.832;2023-04-06T08:21:27;101773.88;;;14.00;38.23
8101;BME280;4093;53.470;9.832;2023-04-06T08:23:55;101757.63;;;16.14;36.26
8101;BME280;4093;53.470;9.832;2023-04-06T08:26:23;101741.41;;;17.32;35.20
8101;BME280;4093;53.470;9.832;2023-04-06T08:28:51;101737.47;;;16.21;34.36
8101;BME280;4093;53.470;9.832;2023-04-06T08:31:19;101751.50;;;17.46;33.94
8101;BME280;4093;53.470;9.832;2023-04-06T08:33:47;101772.50;;;13.75;37.08
8101;BME280;4093;53.470;9.832;2023-04-06T08:36:16;101761.06;;;15.35;37.56
8101;BME280;4093;53.470;9.832;2023-04-06T08:38:49;101758.91;;;15.56;36.03
8101;BME280;4093;53.470;9.832;2023-04-06T08:41:17;101758.28;;;15.01;36.93
8101;BME280;4093;53.470;9.832;2023-04-06T08:43:47;101751.53;;;14.43;37.40
8101;BME280;4093;53.470;9.832;2023-04-06T08:46:18;101754.81;;;14.01;38.42
8101;BME280;4093;53.470;9.832;2023-04-06T08:48:46;101738.03;;;15.96;35.39
8101;BME280;4093;53.470;9.832;2023-04-06T08:51:18;101748.81;;;17.18;34.89
8101;BME280;4093;53.470;9.832;2023-04-06T08:53:47;101736.50;;;17.51;34.82
8101;BME280;4093;53.470;9.832;2023-04-06T08:56:16;101752.44;;;14.90;36.25
8101;BME280;4093;53.470;9.832;2023-04-06T08:58:44;101752.88;;;15.94;35.54
8101;BME280;4093;53.470;9.832;2023-04-06T09:01:13;101750.19;;;15.57;35.84
8101;BME280;4093;53.470;9.832;2023-04-06T09:03:42;101745.44;;;15.35;35.65
8101;BME280;4093;53.470;9.832;2023-04-06T09:06:11;101736.50;;;15.47;37.21
8101;BME280;4093;53.470;9.832;2023-04-06T09:08:42;101757.84;;;14.28;38.03
8101;BME280;4093;53.470;9.832;2023-04-06T09:11:10;101762.03;;;13.81;37.07
8101;BME280;4093;53.470;9.832;2023-04-06T09:13:45;101757.59;;;15.36;35.31
8101;BME280;4093;53.470;9.832;2023-04-06T09:16:13;101735.78;;;16.52;34.63
8101;BME280;4093;53.470;9.832;2023-04-06T09:18:42;101743.88;;;14.33;36.64
8101;BME280;4093;53.470;9.832;2023-04-06T09:21:10;101762.00;;;13.13;38.57
8101;BME280;4093;53.470;9.832;2023-04-06T09:23:39;101776.63;;;12.34;40.48
8101;BME280;4093;53.470;9.832;2023-04-06T09:26:09;101771.63;;;12.09;41.69
8101;BME280;4093;53.470;9.832;2023-04-06T09:28:48;101776.41;;;12.58;41.53
8101;BME280;4093;53.470;9.832;2023-04-06T09:31:21;101762.41;;;13.53;40.04
8101;BME280;4093;53.470;9.832;2023-04-06T09:33:50;101764.84;;;11.84;39.95
8101;BME280;4093;53.470;9.832;2023-04-06T09:36:18;101752.63;;;12.06;41.40
8101;BME280;4093;53.470;9.832;2023-04-06T09:38:53;101752.28;;;12.50;40.55
8101;BME280;4093;53.470;9.832;2023-04-06T09:41:24;101762.03;;;12.20;41.57
8101;BME280;4093;53.470;9.832;2023-04-06T09:44:01;101739.69;;;12.04;40.37
8101;BME280;4093;53.470;9.832;2023-04-06T09:46:31;101748.47;;;11.88;41.66
8101;BME280;4093;53.470;9.832;2023-04-06T09:49:17;101749.88;;;12.29;40.27
8101;BME280;4093;53.470;9.832;2023-04-06T09:51:51;101745.09;;;12.78;40.75
8101;BME280;4093;53.470;9.832;2023-04-06T09:54:22;101738.88;;;12.93;40.26
8101;BME280;4093;53.470;9.832;2023-04-06T09:56:56;101731.56;;;13.29;39.69
8101;BME280;4093;53.470;9.832;2023-04-06T09:59:31;101729.13;;;13.13;40.03
8101;BME280;4093;53.470;9.832;2023-04-06T10:02:05;101741.66;;;13.52;40.04
8101;BME280;4093;53.470;9.832;2023-04-06T10:04:37;101724.41;;;12.69;38.92
8101;BME280;4093;53.470;9.832;2023-04-06T10:07:09;101731.72;;;12.27;40.06
8101;BME280;4093;53.470;9.832;2023-04-06T10:09:39;101740.41;;;12.24;39.95
8101;BME280;4093;53.470;9.832;2023-04-06T10:12:09;101731.13;;;12.90;40.38
8101;BME280;4093;53.470;9.832;2023-04-06T10:14:37;101733.63;;;12.99;38.92
8101;BME280;4093;53.470;9.832;2023-04-06T10:17:05;101736.63;;;13.38;39.15
8101;BME280;4093;53.470;9.832;2023-04-06T10:19:39;101721.88;;;12.64;38.16
8101;BME280;4093;53.470;9.832;2023-04-06T10:22:09;101725.53;;;13.25;38.81
8101;BME280;4093;53.470;9.832;2023-04-06T10:24:39;101707.06;;;13.48;38.87
8101;BME280;4093;53.470;9.832;2023-04-06T10:27:09;101729.47;;;13.55;39.04
8101;BME280;4093;53.470;9.832;2023-04-06T10:29:44;101717.25;;;14.18;38.66
8101;BME280;4093;53.470;9.832;2023-04-06T10:32:13;101719.91;;;12.86;38.92
8101;BME280;4093;53.470;9.832;2023-04-06T10:34:41;101714.81;;;13.50;39.09
8101;BME280;4093;53.470;9.832;2023-04-06T10:37:16;101689.25;;;13.16;39.34
8101;BME280;4093;53.470;9.832;2023-04-06T10:39:45;101716.03;;;13.26;38.99
8101;BME280;4093;53.470;9.832;2023-04-06T10:42:15;101696.75;;;12.69;38.92
8101;BME280;4093;53.470;9.832;2023-04-06T10:44:43;101725.44;;;13.93;40.47
8101;BME280;4093;53.470;9.832;2023-04-06T10:47:18;101710.56;;;14.55;38.56
8101;BME280;4093;53.470;9.832;2023-04-06T10:49:46;101710.75;;;13.32;38.98
8101;BME280;4093;53.470;9.832;2023-04-06T10:52:14;101699.53;;;13.87;38.64
8101;BME280;4093;53.470;9.832;2023-04-06T10:54:42;101692.25;;;13.53;38.41
8101;BME280;4093;53.470;9.832;2023-04-06T10:57:15;101701.78;;;13.54;39.45
8101;BME280;4093;53.470;9.832;2023-04-06T10:59:44;101685.94;;;13.71;38.24
8101;BME280;4093;53.470;9.832;2023-04-06T11:02:19;101701.16;;;13.94;39.30
8101;BME280;4093;53.470;9.832;2023-04-06T11:04:55;101696.84;;;14.44;38.24
8101;BME280;4093;53.470;9.832;2023-04-06T11:07:24;101693.25;;;14.00;38.57
8101;BME280;4093;53.470;9.832;2023-04-06T11:09:53;101695.09;;;13.94;38.71
8101;BME280;4093;53.470;9.832;2023-04-06T11:12:42;101685.03;;;13.74;39.85
8101;BME280;4093;53.470;9.832;2023-04-06T11:15:10;101694.34;;;14.40;39.67
8101;BME280;4093;53.470;9.832;2023-04-06T11:17:38;101674.63;;;13.74;38.86
8101;BME280;4093;53.470;9.832;2023-04-06T11:20:10;101674.41;;;13.87;39.62
8101;BME280;4093;53.470;9.832;2023-04-06T11:22:48;101662.53;;;13.71;38.93
8101;BME280;4093;53.470;9.832;2023-04-06T11:25:16;101677.34;;;14.19;38.61
8101;BME280;4093;53.470;9.832;2023-04-06T11:27:46;101662.03;;;14.02;38.02
8101;BME280;4093;53.470;9.832;2023-04-06T11:30:14;101678.84;;;14.33;39.50
8101;BME280;4093;53.470;9.832;2023-04-06T11:32:44;101674.34;;;14.88;37.56
8101;BME280;4093;53.470;9.832;2023-04-06T11:35:19;101677.88;;;15.65;37.46
8101;BME280;4093;53.470;9.832;2023-04-06T11:37:48;101662.81;;;15.01;36.17
8101;BME280;4093;53.470;9.832;2023-04-06T11:40:20;101655.41;;;15.22;36.86
8101;BME280;4093;53.470;9.832;2023-04-06T11:42:53;101663.28;;;14.77;36.27
8101;BME280;4093;53.470;9.832;2023-04-06T11:45:21;101657.13;;;14.83;36.41
8101;BME280;4093;53.470;9.832;2023-04-06T11:47:55;101643.38;;;14.74;35.79
8101;BME280;4093;53.470;9.832;2023-04-06T11:50:24;101665.84;;;14.80;35.84
8101;BME280;4093;53.470;9.832;2023-04-06T11:52:59;101657.75;;;14.49;37.60
8101;BME280;4093;53.470;9.832;2023-04-06T11:55:27;101661.78;;;15.47;35.94
8101;BME280;4093;53.470;9.832;2023-04-06T11:58:00;101645.88;;;15.21;36.37
8101;BME280;4093;53.470;9.832;2023-04-06T12:00:28;101652.50;;;15.73;36.27
8101;BME280;4093;53.470;9.832;2023-04-06T12:03:00;101655.56;;;15.90;35.69
8101;BME280;4093;53.470;9.832;2023-04-06T12:05:28;101648.53;;;15.57;36.27
8101;BME280;4093;53.470;9.832;2023-04-06T12:07:56;101651.13;;;16.28;35.57
8101;BME280;4093;53.470;9.832;2023-04-06T12:10:28;101634.91;;;16.48;34.39
8101;BME280;4093;53.470;9.832;2023-04-06T12:12:57;101631.81;;;15.67;35.68
8101;BME280;4093;53.470;9.832;2023-04-06T12:15:26;101641.38;;;15.65;34.61
8101;BME280;4093;53.470;9.832;2023-04-06T12:17:53;101635.84;;;15.41;35.33
8101;BME280;4093;53.470;9.832;2023-04-06T12:20:21;101633.38;;;15.35;35.38
8101;BME280;4093;53.470;9.832;2023-04-06T12:22:53;101628.09;;;15.77;35.80
8101;BME280;4093;53.470;9.832;2023-04-06T12:25:21;101633.75;;;16.27;35.93
8101;BME280;4093;53.470;9.832;2023-04-06T12:27:48;101624.69;;;15.73;35.41
8101;BME280;4093;53.470;9.832;2023-04-06T12:30:16;101630.63;;;15.79;35.85
8101;BME280;4093;53.470;9.832;2023-04-06T12:32:45;101624.97;;;15.22;34.57
8101;BME280;4093;53.470;9.832;2023-04-06T12:35:16;101623.66;;;15.04;35.59
8101;BME280;4093;53.470;9.832;2023-04-06T12:37:44;101629.63;;;15.48;34.90
8101;BME280;4093;53.470;9.832;2023-04-06T12:40:12;101629.06;;;15.34;34.94
8101;BME280;4093;53.470;9.832;2023-04-06T12:42:41;101623.06;;;16.04;34.53
8101;BME280;4093;53.470;9.832;2023-04-06T12:45:10;101611.81;;;15.66;34.45
8101;BME280;4093;53.470;9.832;2023-04-06T12:47:38;101615.47;;;16.27;34.64
8101;BME280;4093;53.470;9.832;2023-04-06T12:50:08;101611.16;;;15.58;34.87
8101;BME280;4093;53.470;9.832;2023-04-06T12:52:36;101625.50;;;16.42;34.83
8101;BME280;4093;53.470;9.832;2023-04-06T12:55:04;101611.91;;;15.99;34.76
8101;BME280;4093;53.470;9.832;2023-04-06T12:57:32;101614.63;;;16.27;35.07
8101;BME280;4093;53.470;9.832;2023-04-06T13:00:00;101622.56;;;16.55;34.60
8101;BME280;4093;53.470;9.832;2023-04-06T13:02:29;101612.94;;;15.54;34.64
8101;BME280;4093;53.470;9.832;2023-04-06T13:04:57;101615.16;;;16.07;35.00
8101;BME280;4093;53.470;9.832;2023-04-06T13:07:26;101615.84;;;15.79;35.43
8101;BME280;4093;53.470;9.832;2023-04-06T13:09:54;101617.25;;;15.57;35.38
8101;BME280;4093;53.470;9.832;2023-04-06T13:12:22;101615.75;;;15.82;35.44
8101;BME280;4093;53.470;9.832;2023-04-06T13:14:50;101626.56;;;16.03;35.32
8101;BME280;4093;53.470;9.832;2023-04-06T13:17:19;101607.50;;;15.63;35.38
8101;BME280;4093;53.470;9.832;2023-04-06T13:19:47;101617.38;;;15.13;36.52
8101;BME280;4093;53.470;9.832;2023-04-06T13:22:15;101606.16;;;15.86;36.44
8101;BME280;4093;53.470;9.832;2023-04-06T13:24:44;101601.38;;;15.66;35.03